• Join FlightAware (Why Join?)
  • Login
  • US Flag GB Flag 
03:30 EDT


 

Airport Tracker/Info


-or-


 

Live Flight TrackerFlight Track Log ✈ EJA396 ✈ 24-Jun-2013 ✈ KFHB - KOMA

Flight Track Log - Related Links

Times and Time Zones

All times are in EDT time to prevent confusion due to time zone crossing. See the EJA396 flight status page for this flight to view local times or setup timezone preferences in your user account.

Time Position Orientation Groundspeed Altitude Reporting Facility
EDT Latitude Longitude Course Direction KTS MPH feet Rate Location/Type
09:10 30.6222 -81.5142 306° West 205 236 3,100  Level Jacksonville Center
09:12 30.6756 -81.6003 306° West 291 335 7,900 3,660 Climbing Jacksonville Center
09:13 30.7261 -81.6506 319° Northwest 301 346 10,500 3,780 Climbing Jacksonville Center
09:14 30.7708 -81.7392 300° West 324 373 14,800 3,240 Climbing Jacksonville Center
09:15 30.7947 -81.8503 284° West 336 387 17,000 2,400 Climbing Jacksonville Center
09:16 30.8206 -81.9636 285° West 349 402 19,600 2,460 Climbing Jacksonville Center
09:17 30.8464 -82.0772 285° West 361 415 22,000 2,100 Climbing Jacksonville Center
09:18 30.8742 -82.1978 285° West 372 428 23,800 1,680 Climbing Jacksonville Center
09:19 30.9042 -82.3236 286° West 392 451 25,400 1,560 Climbing Jacksonville Center
09:20 30.9819 -82.4272 311° West 403 464 27,000 1,560 Climbing Jacksonville Center
09:21 31.0761 -82.5142 322° Northwest 412 474 28,600 1,560 Climbing Jacksonville Center
09:22 31.1703 -82.6011 322° Northwest 417 480 30,200 1,560 Climbing Jacksonville Center
09:23 31.2686 -82.6861 324° Northwest 431 496 31,800 1,560 Climbing Jacksonville Center
09:24 31.3647 -82.7733 322° Northwest 436 502 33,400 1,560 Climbing Jacksonville Center
09:25 31.4586 -82.8586 322° Northwest 436 502 35,000 1,500 Climbing Jacksonville Center
09:27 31.6758 -83.0603 322° Northwest 423 487 38,700 1,260 Climbing Atlanta Center
09:28 31.7642 -83.1400 323° Northwest 418 481 39,500 600 Climbing Atlanta Center
09:29 31.8567 -83.2247 322° Northwest 418 481 40,000 240 Climbing Atlanta Center
09:30 31.9489 -83.3119 321° Northwest 423 487 40,000  Level Atlanta Center
09:31 32.0456 -83.3994 323° Northwest 428 493 40,000  Level Atlanta Center
09:32 32.1397 -83.4894 321° Northwest 433 498 40,000  Level Atlanta Center
09:33 32.2342 -83.5772 322° Northwest 433 498 40,000  Level Atlanta Center
09:34 32.3283 -83.6628 322° Northwest 427 491 40,000  Level Atlanta Center
09:35 32.4206 -83.7508 321° Northwest 427 491 40,000  Level Atlanta Center
09:36 32.5125 -83.8394 321° Northwest 427 491 40,000  Level Atlanta Center
09:37 32.6044 -83.9256 322° Northwest 427 491 40,000  Level Atlanta Center
09:38 32.7006 -84.0167 321° Northwest 427 491 40,000  Level Atlanta Center
09:39 32.7922 -84.1031 322° Northwest 427 491 40,000  Level Atlanta Center
09:40 32.8842 -84.1897 322° Northwest 427 491 40,000  Level Atlanta Center
09:41 32.9842 -84.2914 320° Northwest 427 491 40,000  Level Atlanta Center
09:42 33.0758 -84.3783 322° Northwest 427 491 40,000  Level Atlanta Center
09:43 33.1672 -84.4681 321° Northwest 427 491 40,000  Level Atlanta Center
09:44 33.2608 -84.5556 322° Northwest 427 491 40,000  Level Atlanta Center
09:45 33.3522 -84.6456 321° Northwest 427 491 40,000  Level Atlanta Center
09:46 33.4356 -84.7258 321° Northwest 432 497 40,000  Level Atlanta Center
09:47 33.5289 -84.8189 320° Northwest 432 497 40,000  Level Atlanta Center
09:48 33.6264 -84.9094 322° Northwest 432 497 40,000  Level Atlanta Center
09:49 33.7217 -85.0003 322° Northwest 437 503 40,000  Level Atlanta Center
09:50 33.8253 -85.1042 320° Northwest 442 509 40,000  Level Atlanta Center
09:51 33.9225 -85.1978 321° Northwest 442 509 40,000  Level Atlanta Center
09:52 34.0175 -85.2894 321° Northwest 442 509 40,000  Level Atlanta Center
09:53 34.1106 -85.3836 320° Northwest 447 514 40,000  Level Atlanta Center
09:54 34.2075 -85.4756 322° Northwest 447 514 40,000  Level Atlanta Center
09:55 34.3022 -85.5703 320° Northwest 441 507 40,000  Level Atlanta Center
09:56 34.3931 -85.6600 321° Northwest 433 498 40,000  Level Atlanta Center
09:57 34.4878 -85.7575 320° Northwest 433 498 40,000  Level Atlanta Center
09:58 34.5825 -85.8478 322° Northwest 433 498 40,000  Level Atlanta Center
09:59 34.6769 -85.9433 320° Northwest 433 498 40,000  Level Atlanta Center
10:00 34.7714 -86.0389 320° Northwest 439 505 40,000  Level Atlanta Center
10:01 34.8575 -86.1269 320° Northwest 445 512 40,000  Level Atlanta Center
10:02 34.9519 -86.2206 321° Northwest 445 512 40,000  Level Atlanta Center
10:05 35.2250 -86.5089 319° Northwest 454 522 40,000  Level Memphis Center
10:07 35.4167 -86.7061 320° Northwest 451 519 40,000  Level Memphis Center
10:08 35.5111 -86.8017 321° Northwest 445 512 40,000  Level Memphis Center
10:09 35.6058 -86.8997 320° Northwest 445 512 40,000  Level Memphis Center
10:10 35.7022 -87.0006 320° Northwest 450 518 40,000  Level Memphis Center
10:11 35.7967 -87.1014 319° Northwest 450 518 40,000  Level Memphis Center
10:12 35.8911 -87.2003 320° Northwest 450 518 40,000  Level Memphis Center
10:13 35.9789 -87.2892 321° Northwest 450 518 40,000  Level Memphis Center
10:14 36.0731 -87.3908 319° Northwest 450 518 40,000  Level Memphis Center
10:15 36.1669 -87.4878 320° Northwest 445 512 40,000  Level Memphis Center
10:16 36.2631 -87.5900 319° Northwest 450 518 40,000  Level Memphis Center
10:17 36.3656 -87.6972 320° Northwest 450 518 40,000  Level Memphis Center
10:18 36.4572 -87.7975 319° Northwest 445 512 40,000  Level Memphis Center
10:19 36.5511 -87.8978 319° Northwest 445 512 40,000  Level Memphis Center
10:20 36.6425 -87.9933 320° Northwest 445 512 40,000  Level Memphis Center
10:21 36.7361 -88.0967 319° Northwest 445 512 40,000  Level Memphis Center
10:22 36.8231 -88.1825 322° Northwest 445 512 40,000  Level Memphis Center
10:23 36.9167 -88.2861 319° Northwest 440 506 40,000  Level Memphis Center
10:24 37.0078 -88.3853 319° Northwest 440 506 40,000  Level Memphis Center
10:25 37.0989 -88.4869 318° Northwest 440 506 40,000  Level Memphis Center
10:26 37.1922 -88.5889 319° Northwest 440 506 40,000  Level Memphis Center
10:28 37.3706 -88.7853 319° Northwest 439 505 40,000  Level Kansas City Center
10:29 37.4806 -88.9072 319° Northwest 440 506 40,000  Level Kansas City Center
10:30 37.5719 -89.0114 318° Northwest 441 507 40,000  Level Kansas City Center
10:31 37.6642 -89.1161 318° Northwest 444 511 40,000  Level Kansas City Center
10:32 37.7564 -89.2186 319° Northwest 443 510 40,000  Level Kansas City Center
10:33 37.8639 -89.3386 319° Northwest 445 512 40,000  Level Kansas City Center
10:34 37.9564 -89.4428 318° Northwest 446 513 40,000  Level Kansas City Center
10:35 38.0558 -89.5564 318° Northwest 447 514 40,000  Level Kansas City Center
10:36 38.1483 -89.6611 318° Northwest 446 513 40,000  Level Kansas City Center
10:37 38.2397 -89.7664 318° Northwest 444 511 40,000  Level Kansas City Center
10:38 38.3325 -89.8694 319° Northwest 443 510 40,000  Level Kansas City Center
10:39 38.4239 -89.9742 318° Northwest 444 511 40,000  Level Kansas City Center
10:40 38.5156 -90.0797 318° Northwest 445 512 40,000  Level Kansas City Center
10:41 38.6064 -90.1839 318° Northwest 442 509 40,000  Level Kansas City Center
10:42 38.7042 -90.2989 317° Northwest 443 510 40,000  Level Kansas City Center
10:43 38.8119 -90.4269 317° Northwest 442 509 40,000  Level Kansas City Center
10:44 38.8994 -90.5433 314° West 431 496 40,000  Level Kansas City Center
10:45 38.9786 -90.6725 308° West 438 504 40,000  Level Kansas City Center
10:46 39.0558 -90.7950 309° West 442 509 40,000  Level Kansas City Center
10:48 39.1314 -90.9183 308° West 441 507 40,000  Level Kansas City Center
10:49 39.2067 -91.0417 308° West 440 506 40,000  Level Kansas City Center
10:50 39.2817 -91.1658 308° West 439 505 40,000  Level Kansas City Center
10:51 39.3564 -91.2883 308° West 437 503 40,000  Level Kansas City Center
10:52 39.4458 -91.4353 308° West 435 501 40,000  Level Kansas City Center
10:53 39.5228 -91.5614 308° West 433 498 40,000  Level Kansas City Center
10:54 39.5961 -91.6839 308° West 434 499 40,000  Level Kansas City Center
10:55 39.6694 -91.8058 308° West 432 497 40,000  Level Kansas City Center
10:56 39.7425 -91.9278 308° West 431 496 40,000  Level Kansas City Center
10:57 39.8144 -92.0492 308° West 428 493 40,000  Level Kansas City Center
10:58 39.9014 -92.1956 308° West 429 494 40,000  Level Kansas City Center
10:59 39.9747 -92.3186 308° West 430 495 40,000  Level Kansas City Center
11:00 40.0450 -92.4406 307° West 425 489 40,000  Level Kansas City Center
11:01 40.1236 -92.5742 308° West 427 491 40,000  Level Kansas City Center
11:02 40.1733 -92.7086 296° West 434 499 40,000  Level Kansas City Center
11:03 40.2292 -92.8667 295° West 430 495 40,000  Level Kansas City Center
11:04 40.2750 -93.0022 294° West 428 493 40,000  Level Kansas City Center
11:05 40.3253 -93.1489 294° West 406 467 40,000  Level Kansas City Center
11:06 40.3667 -93.2733 294° West 384 442 40,000  Level Kansas City Center
11:07 40.4072 -93.3931 294° West 368 423 40,000  Level Kansas City Center
11:08 40.4469 -93.5103 294° West 359 413 40,000  Level Kansas City Center
11:09 40.4853 -93.6258 294° West 350 403 40,000  Level Kansas City Center
11:10 40.5286 -93.7619 293° West 342 394 40,000  Level Kansas City Center
11:11 40.5678 -93.8764 294° West 345 397 40,000  Level Kansas City Center
11:12 40.6047 -93.9914 293° West 345 397 40,000  Level Kansas City Center
11:13 40.6228 -94.1128 281° West 341 392 40,000  Level Kansas City Center
11:14 40.6428 -94.2264 283° West 330 380 40,000  Level Kansas City Center
11:15 40.5719 -94.2861 213° Southwest 334 384 40,000  Level Kansas City Center
11:16 40.5633 -94.1736 96° East 349 402 40,000  Level Kansas City Center
11:18 40.5992 -94.0531 69° East 366 421 40,000  Level Kansas City Center
11:19 40.5847 -93.9192 98° East 371 427 40,000  Level Kansas City Center
11:20 40.4956 -93.8947 168° South 367 422 40,000  Level Kansas City Center
11:21 40.4739 -94.0250 258° West 331 381 40,000  Level Kansas City Center
11:22 40.4917 -94.1400 282° West 324 373 40,000  Level Kansas City Center
11:23 40.5097 -94.2556 282° West 325 374 40,000  Level Kansas City Center
11:24 40.5314 -94.3942 282° West 326 375 40,000  Level Minneapolis Center
11:25 40.5742 -94.4903 300° West 333 383 40,000  Level Minneapolis Center
11:26 40.6631 -94.4292 28° Northeast 356 410 40,000  Level Minneapolis Center
11:27 40.6450 -94.2997 100° East 367 422 40,000  Level Minneapolis Center
11:28 40.6722 -94.1703 74° East 366 421 40,000  Level Minneapolis Center
11:29 40.7372 -94.0914 43° Northeast 358 412 40,000  Level Minneapolis Center
11:30 40.8083 -94.1547 326° Northwest 346 398 40,000  Level Minneapolis Center
11:31 40.8439 -94.3017 288° West 355 409 40,000  Level Minneapolis Center
11:32 40.8694 -94.4267 285° West 356 410 40,000  Level Minneapolis Center
11:33 40.8958 -94.5497 286° West 354 407 40,000  Level Minneapolis Center
11:34 40.9261 -94.6886 286° West 354 407 40,000  Level Minneapolis Center
11:35 40.9533 -94.8144 286° West 355 409 40,000  Level Minneapolis Center
11:36 40.9794 -94.9392 286° West 353 406 40,000 -60 Level Minneapolis Center
11:37 41.0058 -95.0669 285° West 357 411 39,900 -1,080 Descending Minneapolis Center
11:38 41.0342 -95.1994 286° West 367 422 37,900 -2,040 Descending Minneapolis Center
11:40 41.0703 -95.3733 285° West 398 458 35,400 -2,040 Descending Minneapolis Center
11:41 41.0944 -95.4931 285° West 412 474 33,300 -2,340 Descending Minneapolis Center
11:42 41.1356 -95.6878 286° West 418 481 30,100 -2,760 Descending Minneapolis Center
11:43 41.1722 -95.8672 285° West 421 484 27,100 -2,700 Descending Minneapolis Center
11:44 41.2019 -96.0147 285° West 414 476 24,600 -2,700 Descending Minneapolis Center
11:44 41.2175 -96.1142 282° West 395 455 22,900 -3,000 Descending Minneapolis Center
11:45 41.2367 -96.1869 289° West 404 465 21,500 -2,580 Descending Minneapolis Center
11:46 41.2642 -96.3208 285° West 383 441 19,000 -2,520 Descending Minneapolis Center
11:47 41.2772 -96.4319 279° West 257 296 16,500 -2,160 Descending Minneapolis Center
11:48 41.3367 -96.4475 349° North 293 337 14,700 -2,160 Descending Minneapolis Center
11:49 41.3717 -96.3689 59° Northeast 251 289 12,400 -2,820 Descending Minneapolis Center
11:50 41.3989 -96.3047 60° Northeast 180 207 9,400 -2,880 Descending Minneapolis Center
11:51 41.4264 -96.2406 60° Northeast 197 227 6,700 -2,460 Descending Minneapolis Center
11:52 41.4450 -96.1747 69° East 178 205 4,500 -1,800 Descending Minneapolis Center
11:53 41.4583 -96.1175 73° East 158 182 3,100 -720 Descending Minneapolis Center
11:54 41.4408 -96.0417 107° East 188 216 2,900 -120 Descending Minneapolis Center
11:55 41.4156 -96.0056 133° Southeast 146 168 2,900 -180 Level Minneapolis Center
11:56 41.3819 -95.9733 144° Southeast 148 170 2,600 -600 Descending Minneapolis Center
11:57 41.3461 -95.9386 144° Southeast 160 184 1,800 -660 Descending Minneapolis Center
11:58 41.3128 -95.8986 138° Southeast 140 161 1,200 -480 Descending Minneapolis Center
12:00 41.3000 -95.8833 127° Southeast  Level FlightAware Approximate
12:07 41.3032 -95.8941 127° Southeast  Level Estimated
12:08 41.3032 -95.8941 127° Southeast  Level Estimated
12:09 41.3032 -95.8941 127° Southeast  Level Estimated
12:10 41.3032 -95.8941 127° Southeast  Level Estimated
12:11 41.3032 -95.8941 127° Southeast  Level Estimated
12:12 41.3032 -95.8941 127° Southeast  Level Estimated
12:13 41.3032 -95.8941 127° Southeast  Level Estimated